Aberdeen, North Carolina
Current Conditions -  °F | °C
As of 8:15 AM on Thursday 27 Nov 2014 (Local Time) from KSOP Reporting Station
Clear Clear  
Wind Chill: 41°   Ceiling: Unl
Heat Index: 41°   Visibility: 10mi
Dew Point: -9°   Wind: 0mph
Humidity: 12%   Direction: NA
Pressure: 30.01"   Gusts: NA
Location:  35.13°N, 79.43°W
Report Text: KSOP 271315Z AUTO 00000KT 10SM CLR 05/M23 A3001 RMK AO1
Loading
Personal Weather Stations






























Interactive Weather Map New forecast layout! Learn more

10-Day Weather Forecast

Advertisements
Track Severe Weather on mobile